Thurmond, North Carolina
Current Conditions -  °F | °C
As of 1:55 AM on Monday 22 Dec 2014 (Local Time) from KUKF Reporting Station
Overcast Overcast  
Wind Chill:   Ceiling: 1900
Heat Index:   Visibility: 10mi
Dew Point:   Wind: 3mph
Humidity: 81%   Direction: 60°ENE
Pressure: 30.24"   Gusts: NA
Location:  36.37°N, 80.93°W
Report Text: KUKF 220655Z AUTO 06003KT 10SM OVC019 04/01 A3024 RMK AO2
Loading
Personal Weather Stations






























Interactive Weather Map New forecast layout! Learn more

10-Day Weather Forecast

Advertisements
Track Severe Weather on mobile